sensor_id;sensor_type;location;lat;lon;timestamp;temperature;humidity
1812;DHT22;904;47.814;11.134;2022-10-19T00:01:41;16.30;99.90
1812;DHT22;904;47.814;11.134;2022-10-19T00:04:08;16.20;99.90
1812;DHT22;904;47.814;11.134;2022-10-19T00:06:36;16.20;99.90
1812;DHT22;904;47.814;11.134;2022-10-19T00:09:06;16.10;99.90
1812;DHT22;904;47.814;11.134;2022-10-19T00:11:35;16.00;99.90
1812;DHT22;904;47.814;11.134;2022-10-19T00:14:03;16.00;99.90
1812;DHT22;904;47.814;11.134;2022-10-19T00:16:33;16.00;99.90
1812;DHT22;904;47.814;11.134;2022-10-19T00:19:05;16.00;99.90
1812;DHT22;904;47.814;11.134;2022-10-19T00:21:32;15.90;99.90
1812;DHT22;904;47.814;11.134;2022-10-19T00:24:00;16.00;99.90
1812;DHT22;904;47.814;11.134;2022-10-19T00:26:27;16.00;99.90
1812;DHT22;904;47.814;11.134;2022-10-19T00:28:54;16.10;99.90
1812;DHT22;904;47.814;11.134;2022-10-19T00:31:22;16.10;99.90
1812;DHT22;904;47.814;11.134;2022-10-19T00:33:50;16.10;99.90
1812;DHT22;904;47.814;11.134;2022-10-19T00:36:20;16.10;99.90
1812;DHT22;904;47.814;11.134;2022-10-19T00:38:48;16.10;99.90
1812;DHT22;904;47.814;11.134;2022-10-19T00:41:16;16.10;99.90
1812;DHT22;904;47.814;11.134;2022-10-19T00:43:53;16.10;99.90
1812;DHT22;904;47.814;11.134;2022-10-19T00:46:20;16.10;99.90
1812;DHT22;904;47.814;11.134;2022-10-19T00:48:48;16.00;99.90
1812;DHT22;904;47.814;11.134;2022-10-19T00:51:18;16.00;99.90
1812;DHT22;904;47.814;11.134;2022-10-19T00:53:45;16.00;99.90
1812;DHT22;904;47.814;11.134;2022-10-19T00:56:13;16.00;99.90
1812;DHT22;904;47.814;11.134;2022-10-19T00:58:42;16.00;99.90
1812;DHT22;904;47.814;11.134;2022-10-19T01:01:13;15.90;99.90
1812;DHT22;904;47.814;11.134;2022-10-19T01:03:42;15.90;99.90
1812;DHT22;904;47.814;11.134;2022-10-19T01:06:09;15.90;99.90
1812;DHT22;904;47.814;11.134;2022-10-19T01:08:38;15.90;99.90
1812;DHT22;904;47.814;11.134;2022-10-19T01:11:17;15.90;99.90
1812;DHT22;904;47.814;11.134;2022-10-19T01:13:58;15.90;99.90
1812;DHT22;904;47.814;11.134;2022-10-19T01:16:34;16.00;99.90
1812;DHT22;904;47.814;11.134;2022-10-19T01:19:15;16.00;99.90
1812;DHT22;904;47.814;11.134;2022-10-19T01:21:56;16.00;99.90
1812;DHT22;904;47.814;11.134;2022-10-19T01:24:44;16.10;99.90
1812;DHT22;904;47.814;11.134;2022-10-19T01:27:34;16.10;99.90
1812;DHT22;904;47.814;11.134;2022-10-19T01:30:10;16.10;99.90
1812;DHT22;904;47.814;11.134;2022-10-19T01:35:34;16.10;99.90
1812;DHT22;904;47.814;11.134;2022-10-19T01:38:13;16.10;99.90
1812;DHT22;904;47.814;11.134;2022-10-19T01:40:49;16.10;99.90
1812;DHT22;904;47.814;11.134;2022-10-19T01:43:22;16.10;99.90
1812;DHT22;904;47.814;11.134;2022-10-19T01:45:56;16.10;99.90
1812;DHT22;904;47.814;11.134;2022-10-19T01:48:29;16.00;99.90
1812;DHT22;904;47.814;11.134;2022-10-19T01:51:00;16.00;99.90
1812;DHT22;904;47.814;11.134;2022-10-19T01:53:32;16.00;99.90
1812;DHT22;904;47.814;11.134;2022-10-19T01:56:02;15.90;99.90
1812;DHT22;904;47.814;11.134;2022-10-19T01:58:34;15.90;99.90
1812;DHT22;904;47.814;11.134;2022-10-19T02:01:07;15.90;99.90
1812;DHT22;904;47.814;11.134;2022-10-19T02:03:36;15.90;99.90
1812;DHT22;904;47.814;11.134;2022-10-19T02:06:06;16.00;99.90
1812;DHT22;904;47.814;11.134;2022-10-19T02:08:38;16.00;99.90
1812;DHT22;904;47.814;11.134;2022-10-19T02:11:06;16.00;99.90
1812;DHT22;904;47.814;11.134;2022-10-19T02:13:34;15.90;99.90
1812;DHT22;904;47.814;11.134;2022-10-19T02:16:06;15.80;99.90
1812;DHT22;904;47.814;11.134;2022-10-19T02:18:39;15.80;99.90
1812;DHT22;904;47.814;11.134;2022-10-19T02:21:08;15.80;99.90
1812;DHT22;904;47.814;11.134;2022-10-19T02:23:35;15.80;99.90
1812;DHT22;904;47.814;11.134;2022-10-19T02:26:02;15.80;99.90
1812;DHT22;904;47.814;11.134;2022-10-19T02:28:30;15.80;99.90
1812;DHT22;904;47.814;11.134;2022-10-19T02:30:58;15.90;99.90
1812;DHT22;904;47.814;11.134;2022-10-19T02:33:28;15.90;99.90
1812;DHT22;904;47.814;11.134;2022-10-19T02:35:56;15.80;99.90
1812;DHT22;904;47.814;11.134;2022-10-19T02:38:24;15.90;99.90
1812;DHT22;904;47.814;11.134;2022-10-19T02:41:01;15.90;99.90
1812;DHT22;904;47.814;11.134;2022-10-19T02:43:32;15.90;99.90
1812;DHT22;904;47.814;11.134;2022-10-19T02:46:03;15.90;99.90
1812;DHT22;904;47.814;11.134;2022-10-19T02:48:34;15.90;99.90
1812;DHT22;904;47.814;11.134;2022-10-19T02:51:02;16.00;99.90
1812;DHT22;904;47.814;11.134;2022-10-19T02:53:29;16.00;99.90
1812;DHT22;904;47.814;11.134;2022-10-19T02:55:56;16.00;99.90
1812;DHT22;904;47.814;11.134;2022-10-19T02:58:23;16.00;99.90
1812;DHT22;904;47.814;11.134;2022-10-19T03:00:50;16.00;99.90
1812;DHT22;904;47.814;11.134;2022-10-19T03:03:18;16.00;99.90
1812;DHT22;904;47.814;11.134;2022-10-19T03:05:46;16.00;99.90
1812;DHT22;904;47.814;11.134;2022-10-19T03:08:13;16.00;99.90
1812;DHT22;904;47.814;11.134;2022-10-19T03:10:41;16.00;99.90
1812;DHT22;904;47.814;11.134;2022-10-19T03:13:08;16.00;99.90
1812;DHT22;904;47.814;11.134;2022-10-19T03:15:35;16.00;99.90
1812;DHT22;904;47.814;11.134;2022-10-19T03:18:02;16.00;99.90
1812;DHT22;904;47.814;11.134;2022-10-19T03:20:29;16.00;99.90
1812;DHT22;904;47.814;11.134;2022-10-19T03:22:58;16.00;99.90
1812;DHT22;904;47.814;11.134;2022-10-19T03:25:25;16.00;99.90
1812;DHT22;904;47.814;11.134;2022-10-19T03:27:52;16.00;99.90
1812;DHT22;904;47.814;11.134;2022-10-19T03:30:19;16.00;99.90
1812;DHT22;904;47.814;11.134;2022-10-19T03:32:46;16.00;99.90
1812;DHT22;904;47.814;11.134;2022-10-19T03:35:14;15.90;99.90
1812;DHT22;904;47.814;11.134;2022-10-19T03:37:41;15.90;99.90
1812;DHT22;904;47.814;11.134;2022-10-19T03:40:10;15.90;99.90
1812;DHT22;904;47.814;11.134;2022-10-19T03:42:37;15.90;99.90
1812;DHT22;904;47.814;11.134;2022-10-19T03:45:05;15.90;99.90
1812;DHT22;904;47.814;11.134;2022-10-19T03:47:32;15.90;99.90
1812;DHT22;904;47.814;11.134;2022-10-19T03:49:59;15.90;99.90
1812;DHT22;904;47.814;11.134;2022-10-19T03:52:26;15.80;99.90
1812;DHT22;904;47.814;11.134;2022-10-19T03:54:54;15.80;99.90
1812;DHT22;904;47.814;11.134;2022-10-19T03:57:22;15.80;99.90
1812;DHT22;904;47.814;11.134;2022-10-19T03:59:49;15.80;99.90
1812;DHT22;904;47.814;11.134;2022-10-19T04:02:17;15.80;99.90
1812;DHT22;904;47.814;11.134;2022-10-19T04:04:44;15.80;99.90
1812;DHT22;904;47.814;11.134;2022-10-19T04:07:11;15.80;99.90
1812;DHT22;904;47.814;11.134;2022-10-19T04:09:38;15.80;99.90
1812;DHT22;904;47.814;11.134;2022-10-19T04:12:05;15.80;99.90
1812;DHT22;904;47.814;11.134;2022-10-19T04:14:35;15.90;99.90
1812;DHT22;904;47.814;11.134;2022-10-19T04:17:07;15.80;99.90
1812;DHT22;904;47.814;11.134;2022-10-19T04:19:35;15.80;99.90
1812;DHT22;904;47.814;11.134;2022-10-19T04:22:02;15.80;99.90
1812;DHT22;904;47.814;11.134;2022-10-19T04:24:30;15.80;99.90
1812;DHT22;904;47.814;11.134;2022-10-19T04:26:57;15.80;99.90
1812;DHT22;904;47.814;11.134;2022-10-19T04:29:27;15.80;99.90
1812;DHT22;904;47.814;11.134;2022-10-19T04:31:56;15.80;99.90
1812;DHT22;904;47.814;11.134;2022-10-19T04:34:23;15.80;99.90
1812;DHT22;904;47.814;11.134;2022-10-19T04:36:52;15.90;99.90
1812;DHT22;904;47.814;11.134;2022-10-19T04:39:19;15.90;99.90
1812;DHT22;904;47.814;11.134;2022-10-19T04:41:46;15.90;99.90
1812;DHT22;904;47.814;11.134;2022-10-19T04:44:13;15.90;99.90
1812;DHT22;904;47.814;11.134;2022-10-19T04:46:40;15.90;99.90
1812;DHT22;904;47.814;11.134;2022-10-19T04:49:09;15.90;99.90
1812;DHT22;904;47.814;11.134;2022-10-19T04:51:36;15.90;99.90
1812;DHT22;904;47.814;11.134;2022-10-19T04:54:03;15.90;99.90
1812;DHT22;904;47.814;11.134;2022-10-19T04:56:31;15.90;99.90
1812;DHT22;904;47.814;11.134;2022-10-19T09:44:22;15.90;99.90
1812;DHT22;904;47.814;11.134;2022-10-19T09:46:54;17.40;99.90
1812;DHT22;904;47.814;11.134;2022-10-19T09:49:38;17.40;99.90
1812;DHT22;904;47.814;11.134;2022-10-19T09:52:26;17.40;99.90
1812;DHT22;904;47.814;11.134;2022-10-19T09:55:01;17.40;99.90
1812;DHT22;904;47.814;11.134;2022-10-19T09:57:30;17.50;99.90
1812;DHT22;904;47.814;11.134;2022-10-19T09:59:57;17.60;99.60
1812;DHT22;904;47.814;11.134;2022-10-19T10:02:29;17.70;99.60
1812;DHT22;904;47.814;11.134;2022-10-19T10:05:03;17.80;99.80
1812;DHT22;904;47.814;11.134;2022-10-19T10:07:35;17.80;99.70
1812;DHT22;904;47.814;11.134;2022-10-19T10:10:09;17.80;99.60
1812;DHT22;904;47.814;11.134;2022-10-19T10:12:39;17.90;99.50
1812;DHT22;904;47.814;11.134;2022-10-19T10:15:07;17.90;99.40
1812;DHT22;904;47.814;11.134;2022-10-19T10:17:34;18.00;99.60
1812;DHT22;904;47.814;11.134;2022-10-19T10:20:19;18.00;99.50
1812;DHT22;904;47.814;11.134;2022-10-19T10:22:55;18.10;98.80
1812;DHT22;904;47.814;11.134;2022-10-19T10:25:26;18.20;99.10
1812;DHT22;904;47.814;11.134;2022-10-19T10:27:57;18.30;99.00
1812;DHT22;904;47.814;11.134;2022-10-19T10:30:26;18.40;98.70
1812;DHT22;904;47.814;11.134;2022-10-19T10:32:55;18.50;98.30
1812;DHT22;904;47.814;11.134;2022-10-19T10:35:26;18.60;97.60
1812;DHT22;904;47.814;11.134;2022-10-19T10:38:07;18.60;97.70
1812;DHT22;904;47.814;11.134;2022-10-19T10:40:34;18.60;97.40
1812;DHT22;904;47.814;11.134;2022-10-19T10:43:05;18.50;97.20
1812;DHT22;904;47.814;11.134;2022-10-19T10:45:38;18.50;97.40
1812;DHT22;904;47.814;11.134;2022-10-19T10:48:17;18.40;97.50
1812;DHT22;904;47.814;11.134;2022-10-19T10:50:49;18.50;97.80
1812;DHT22;904;47.814;11.134;2022-10-19T10:53:46;18.40;97.80
1812;DHT22;904;47.814;11.134;2022-10-19T10:56:22;18.40;97.80
1812;DHT22;904;47.814;11.134;2022-10-19T10:58:55;18.40;97.70
1812;DHT22;904;47.814;11.134;2022-10-19T11:01:25;18.50;97.80
1812;DHT22;904;47.814;11.134;2022-10-19T11:03:59;18.50;97.80
1812;DHT22;904;47.814;11.134;2022-10-19T11:06:27;18.50;97.80
1812;DHT22;904;47.814;11.134;2022-10-19T11:09:06;18.50;97.90
1812;DHT22;904;47.814;11.134;2022-10-19T11:11:36;18.50;98.20
1812;DHT22;904;47.814;11.134;2022-10-19T11:14:21;18.60;98.30
1812;DHT22;904;47.814;11.134;2022-10-19T11:16:52;18.60;97.70
1812;DHT22;904;47.814;11.134;2022-10-19T11:19:23;18.60;96.70
1812;DHT22;904;47.814;11.134;2022-10-19T11:21:56;18.60;96.50
1812;DHT22;904;47.814;11.134;2022-10-19T11:24:34;18.70;96.50
1812;DHT22;904;47.814;11.134;2022-10-19T11:27:17;18.70;96.70
1812;DHT22;904;47.814;11.134;2022-10-19T11:30:06;18.60;96.60
1812;DHT22;904;47.814;11.134;2022-10-19T11:32:43;18.60;96.80
1812;DHT22;904;47.814;11.134;2022-10-19T11:35:24;18.70;96.60
1812;DHT22;904;47.814;11.134;2022-10-19T11:38:01;18.70;96.80
1812;DHT22;904;47.814;11.134;2022-10-19T11:40:37;18.70;96.40
1812;DHT22;904;47.814;11.134;2022-10-19T11:43:10;18.80;96.70
1812;DHT22;904;47.814;11.134;2022-10-19T11:45:49;18.90;96.40
1812;DHT22;904;47.814;11.134;2022-10-19T11:48:36;19.00;95.90
1812;DHT22;904;47.814;11.134;2022-10-19T11:51:10;18.90;95.20
1812;DHT22;904;47.814;11.134;2022-10-19T11:53:51;19.00;95.30
1812;DHT22;904;47.814;11.134;2022-10-19T11:56:28;19.00;95.70
1812;DHT22;904;47.814;11.134;2022-10-19T11:59:01;19.10;95.40
1812;DHT22;904;47.814;11.134;2022-10-19T12:01:40;19.10;95.00
1812;DHT22;904;47.814;11.134;2022-10-19T12:04:25;19.10;94.60
1812;DHT22;904;47.814;11.134;2022-10-19T12:07:00;19.20;94.70
1812;DHT22;904;47.814;11.134;2022-10-19T12:09:39;19.30;94.80
1812;DHT22;904;47.814;11.134;2022-10-19T12:12:22;19.40;94.20
1812;DHT22;904;47.814;11.134;2022-10-19T12:14:53;19.40;93.50
1812;DHT22;904;47.814;11.134;2022-10-19T12:17:25;19.40;93.30
1812;DHT22;904;47.814;11.134;2022-10-19T12:19:55;19.40;93.50
1812;DHT22;904;47.814;11.134;2022-10-19T12:22:26;19.40;93.80
1812;DHT22;904;47.814;11.134;2022-10-19T12:24:57;19.40;93.80
1812;DHT22;904;47.814;11.134;2022-10-19T12:27:29;19.40;93.30
1812;DHT22;904;47.814;11.134;2022-10-19T12:30:02;19.40;93.00
1812;DHT22;904;47.814;11.134;2022-10-19T12:32:38;19.40;92.80
1812;DHT22;904;47.814;11.134;2022-10-19T12:35:16;19.40;93.00
1812;DHT22;904;47.814;11.134;2022-10-19T12:37:51;19.30;93.10
1812;DHT22;904;47.814;11.134;2022-10-19T12:40:26;19.40;92.90
1812;DHT22;904;47.814;11.134;2022-10-19T12:43:03;19.30;92.80
1812;DHT22;904;47.814;11.134;2022-10-19T12:45:34;19.20;92.60
1812;DHT22;904;47.814;11.134;2022-10-19T12:48:22;19.30;92.70
1812;DHT22;904;47.814;11.134;2022-10-19T12:51:10;19.40;92.60
1812;DHT22;904;47.814;11.134;2022-10-19T12:53:40;19.50;92.50
1812;DHT22;904;47.814;11.134;2022-10-19T12:56:12;19.60;92.50
1812;DHT22;904;47.814;11.134;2022-10-19T12:58:49;19.70;92.40
1812;DHT22;904;47.814;11.134;2022-10-19T13:01:20;19.90;92.80
1812;DHT22;904;47.814;11.134;2022-10-19T13:03:50;20.10;92.60
1812;DHT22;904;47.814;11.134;2022-10-19T13:06:29;20.20;91.80
1812;DHT22;904;47.814;11.134;2022-10-19T13:08:59;20.10;91.30
1812;DHT22;904;47.814;11.134;2022-10-19T13:11:27;20.10;91.60
1812;DHT22;904;47.814;11.134;2022-10-19T13:14:04;20.00;90.50
1812;DHT22;904;47.814;11.134;2022-10-19T13:19:31;19.90;90.90
1812;DHT22;904;47.814;11.134;2022-10-19T13:22:23;20.00;91.10
1812;DHT22;904;47.814;11.134;2022-10-19T13:25:20;20.00;91.00
1812;DHT22;904;47.814;11.134;2022-10-19T13:27:52;19.80;90.50
1812;DHT22;904;47.814;11.134;2022-10-19T13:30:59;19.80;90.80
1812;DHT22;904;47.814;11.134;2022-10-19T13:33:48;19.70;91.10
1812;DHT22;904;47.814;11.134;2022-10-19T13:36:15;19.70;91.50
1812;DHT22;904;47.814;11.134;2022-10-19T13:38:44;19.70;91.70
1812;DHT22;904;47.814;11.134;2022-10-19T13:41:17;19.80;91.70
1812;DHT22;904;47.814;11.134;2022-10-19T13:43:51;19.80;91.50
1812;DHT22;904;47.814;11.134;2022-10-19T13:46:32;19.80;91.50
1812;DHT22;904;47.814;11.134;2022-10-19T13:49:30;19.90;91.50
1812;DHT22;904;47.814;11.134;2022-10-19T13:52:09;19.80;91.20
1812;DHT22;904;47.814;11.134;2022-10-19T13:54:53;19.80;91.10
1812;DHT22;904;47.814;11.134;2022-10-19T13:57:31;19.80;90.70
1812;DHT22;904;47.814;11.134;2022-10-19T14:00:15;19.70;90.90
1812;DHT22;904;47.814;11.134;2022-10-19T14:03:10;19.60;90.80
1812;DHT22;904;47.814;11.134;2022-10-19T14:06:01;19.50;90.50
1812;DHT22;904;47.814;11.134;2022-10-19T14:08:43;19.40;90.40
1812;DHT22;904;47.814;11.134;2022-10-19T14:11:16;19.40;90.50
1812;DHT22;904;47.814;11.134;2022-10-19T14:13:45;19.40;90.60
1812;DHT22;904;47.814;11.134;2022-10-19T14:16:18;19.30;90.50
1812;DHT22;904;47.814;11.134;2022-10-19T14:18:54;19.30;91.00
1812;DHT22;904;47.814;11.134;2022-10-19T14:21:32;19.20;91.20
1812;DHT22;904;47.814;11.134;2022-10-19T14:24:01;19.10;91.20
1812;DHT22;904;47.814;11.134;2022-10-19T14:26:29;19.00;90.80
1812;DHT22;904;47.814;11.134;2022-10-19T14:28:58;19.00;90.90
1812;DHT22;904;47.814;11.134;2022-10-19T14:31:30;18.90;91.20
1812;DHT22;904;47.814;11.134;2022-10-19T14:34:03;18.90;91.50
1812;DHT22;904;47.814;11.134;2022-10-19T14:36:33;18.90;91.50
1812;DHT22;904;47.814;11.134;2022-10-19T14:39:02;18.80;91.60
1812;DHT22;904;47.814;11.134;2022-10-19T14:41:31;18.80;91.70
1812;DHT22;904;47.814;11.134;2022-10-19T14:43:59;18.70;91.20
1812;DHT22;904;47.814;11.134;2022-10-19T14:46:29;18.70;91.40
1812;DHT22;904;47.814;11.134;2022-10-19T14:49:01;18.60;91.30
1812;DHT22;904;47.814;11.134;2022-10-19T14:51:32;18.40;91.40
1812;DHT22;904;47.814;11.134;2022-10-19T14:54:04;18.40;91.80
1812;DHT22;904;47.814;11.134;2022-10-19T14:56:33;18.50;92.10
1812;DHT22;904;47.814;11.134;2022-10-19T14:59:04;18.50;91.80
1812;DHT22;904;47.814;11.134;2022-10-19T15:01:34;18.50;91.40
1812;DHT22;904;47.814;11.134;2022-10-19T15:04:03;18.50;91.30
1812;DHT22;904;47.814;11.134;2022-10-19T15:06:32;18.40;91.60
1812;DHT22;904;47.814;11.134;2022-10-19T15:09:03;18.40;91.70
1812;DHT22;904;47.814;11.134;2022-10-19T15:11:36;18.40;91.70
1812;DHT22;904;47.814;11.134;2022-10-19T15:14:06;18.40;91.80
1812;DHT22;904;47.814;11.134;2022-10-19T15:16:43;18.40;91.80
1812;DHT22;904;47.814;11.134;2022-10-19T15:19:18;18.40;91.40
1812;DHT22;904;47.814;11.134;2022-10-19T15:21:47;18.40;90.90
1812;DHT22;904;47.814;11.134;2022-10-19T15:24:31;18.30;90.90
1812;DHT22;904;47.814;11.134;2022-10-19T15:27:08;18.30;91.30
1812;DHT22;904;47.814;11.134;2022-10-19T15:29:35;18.20;91.30
1812;DHT22;904;47.814;11.134;2022-10-19T15:32:13;18.20;91.60
1812;DHT22;904;47.814;11.134;2022-10-19T15:34:42;18.20;91.20
1812;DHT22;904;47.814;11.134;2022-10-19T15:37:16;18.20;91.40
1812;DHT22;904;47.814;11.134;2022-10-19T15:39:43;18.20;91.50
1812;DHT22;904;47.814;11.134;2022-10-19T15:42:34;18.20;91.40
1812;DHT22;904;47.814;11.134;2022-10-19T15:45:02;18.20;91.40
1812;DHT22;904;47.814;11.134;2022-10-19T15:47:30;18.20;91.60
1812;DHT22;904;47.814;11.134;2022-10-19T15:50:00;18.10;91.60
1812;DHT22;904;47.814;11.134;2022-10-19T15:52:28;18.10;91.80
1812;DHT22;904;47.814;11.134;2022-10-19T15:54:57;18.10;92.00
1812;DHT22;904;47.814;11.134;2022-10-19T15:57:27;18.00;92.20
1812;DHT22;904;47.814;11.134;2022-10-19T15:59:56;18.00;92.30
1812;DHT22;904;47.814;11.134;2022-10-19T16:02:23;18.00;92.20
1812;DHT22;904;47.814;11.134;2022-10-19T16:04:50;17.90;92.30
1812;DHT22;904;47.814;11.134;2022-10-19T16:07:24;17.90;92.20
1812;DHT22;904;47.814;11.134;2022-10-19T16:09:51;17.80;92.20
1812;DHT22;904;47.814;11.134;2022-10-19T16:12:19;17.80;92.30
1812;DHT22;904;47.814;11.134;2022-10-19T16:14:46;17.80;92.50
1812;DHT22;904;47.814;11.134;2022-10-19T16:17:14;17.70;92.60
1812;DHT22;904;47.814;11.134;2022-10-19T16:19:41;17.70;92.60
1812;DHT22;904;47.814;11.134;2022-10-19T16:22:09;17.60;92.80
1812;DHT22;904;47.814;11.134;2022-10-19T16:24:37;17.60;92.90
1812;DHT22;904;47.814;11.134;2022-10-19T16:27:05;17.60;93.30
1812;DHT22;904;47.814;11.134;2022-10-19T16:29:32;17.60;93.00
1812;DHT22;904;47.814;11.134;2022-10-19T16:31:59;17.50;93.00
1812;DHT22;904;47.814;11.134;2022-10-19T16:34:26;17.50;93.00
1812;DHT22;904;47.814;11.134;2022-10-19T16:36:53;17.50;93.00
1812;DHT22;904;47.814;11.134;2022-10-19T16:39:20;17.40;93.10
1812;DHT22;904;47.814;11.134;2022-10-19T16:41:51;17.40;93.30
1812;DHT22;904;47.814;11.134;2022-10-19T16:44:18;17.40;93.50
1812;DHT22;904;47.814;11.134;2022-10-19T16:46:45;17.30;93.50
1812;DHT22;904;47.814;11.134;2022-10-19T16:49:12;17.40;93.60
1812;DHT22;904;47.814;11.134;2022-10-19T16:51:40;17.30;93.70
1812;DHT22;904;47.814;11.134;2022-10-19T16:54:09;17.30;93.70
1812;DHT22;904;47.814;11.134;2022-10-19T16:56:41;17.30;93.80
1812;DHT22;904;47.814;11.134;2022-10-19T16:59:12;17.30;93.90
1812;DHT22;904;47.814;11.134;2022-10-19T17:01:40;17.30;93.90
1812;DHT22;904;47.814;11.134;2022-10-19T17:04:08;17.30;94.10
1812;DHT22;904;47.814;11.134;2022-10-19T17:06:35;17.20;94.50
1812;DHT22;904;47.814;11.134;2022-10-19T17:09:03;17.20;94.00
1812;DHT22;904;47.814;11.134;2022-10-19T17:11:32;17.20;94.00
1812;DHT22;904;47.814;11.134;2022-10-19T17:14:01;17.20;94.10
1812;DHT22;904;47.814;11.134;2022-10-19T17:16:32;17.20;94.10
1812;DHT22;904;47.814;11.134;2022-10-19T17:19:00;17.10;94.20
1812;DHT22;904;47.814;11.134;2022-10-19T17:21:30;17.10;94.20
1812;DHT22;904;47.814;11.134;2022-10-19T17:24:00;17.10;94.30
1812;DHT22;904;47.814;11.134;2022-10-19T17:26:29;17.10;94.50
1812;DHT22;904;47.814;11.134;2022-10-19T17:28:56;17.00;94.60
1812;DHT22;904;47.814;11.134;2022-10-19T17:31:24;17.00;94.80
1812;DHT22;904;47.814;11.134;2022-10-19T17:33:53;17.00;94.90
1812;DHT22;904;47.814;11.134;2022-10-19T17:36:22;17.00;94.90
1812;DHT22;904;47.814;11.134;2022-10-19T17:38:51;17.00;94.90
1812;DHT22;904;47.814;11.134;2022-10-19T17:41:18;17.00;94.80
1812;DHT22;904;47.814;11.134;2022-10-19T17:43:47;17.00;94.80
1812;DHT22;904;47.814;11.134;2022-10-19T17:46:17;17.00;94.90
1812;DHT22;904;47.814;11.134;2022-10-19T17:48:45;17.00;95.00
1812;DHT22;904;47.814;11.134;2022-10-19T17:51:15;17.00;95.00
1812;DHT22;904;47.814;11.134;2022-10-19T17:53:43;16.90;94.90
1812;DHT22;904;47.814;11.134;2022-10-19T17:56:12;17.00;95.00
1812;DHT22;904;47.814;11.134;2022-10-19T17:58:39;17.00;95.10
1812;DHT22;904;47.814;11.134;2022-10-19T18:01:07;16.90;95.10
1812;DHT22;904;47.814;11.134;2022-10-19T18:03:36;16.90;95.10
1812;DHT22;904;47.814;11.134;2022-10-19T18:06:05;16.90;95.10
1812;DHT22;904;47.814;11.134;2022-10-19T18:08:35;16.90;95.10
1812;DHT22;904;47.814;11.134;2022-10-19T18:11:04;16.90;95.20
1812;DHT22;904;47.814;11.134;2022-10-19T18:13:32;16.90;95.40
1812;DHT22;904;47.814;11.134;2022-10-19T18:16:01;16.90;95.50
1812;DHT22;904;47.814;11.134;2022-10-19T18:18:29;16.90;95.60
1812;DHT22;904;47.814;11.134;2022-10-19T18:20:57;16.90;95.60
1812;DHT22;904;47.814;11.134;2022-10-19T18:23:24;16.80;95.70
1812;DHT22;904;47.814;11.134;2022-10-19T18:25:53;16.70;95.70
1812;DHT22;904;47.814;11.134;2022-10-19T18:28:20;16.70;95.80
1812;DHT22;904;47.814;11.134;2022-10-19T18:30:47;16.70;95.90
1812;DHT22;904;47.814;11.134;2022-10-19T18:33:14;16.70;95.90
1812;DHT22;904;47.814;11.134;2022-10-19T18:35:41;16.70;95.90
1812;DHT22;904;47.814;11.134;2022-10-19T18:38:08;16.70;95.90
1812;DHT22;904;47.814;11.134;2022-10-19T18:40:35;16.70;95.70
1812;DHT22;904;47.814;11.134;2022-10-19T18:43:04;16.70;95.80
1812;DHT22;904;47.814;11.134;2022-10-19T18:45:31;16.70;95.90
1812;DHT22;904;47.814;11.134;2022-10-19T18:47:58;16.70;95.90
1812;DHT22;904;47.814;11.134;2022-10-19T18:50:26;16.70;96.00
1812;DHT22;904;47.814;11.134;2022-10-19T18:52:54;16.70;96.10
1812;DHT22;904;47.814;11.134;2022-10-19T18:55:21;16.60;95.90
1812;DHT22;904;47.814;11.134;2022-10-19T18:57:48;16.60;95.90
1812;DHT22;904;47.814;11.134;2022-10-19T19:00:17;16.60;96.10
1812;DHT22;904;47.814;11.134;2022-10-19T19:02:44;16.60;96.00
1812;DHT22;904;47.814;11.134;2022-10-19T19:05:10;16.60;95.90
1812;DHT22;904;47.814;11.134;2022-10-19T19:07:37;16.60;95.90
1812;DHT22;904;47.814;11.134;2022-10-19T19:10:05;16.60;96.00
1812;DHT22;904;47.814;11.134;2022-10-19T19:12:32;16.60;95.90
1812;DHT22;904;47.814;11.134;2022-10-19T19:14:59;16.60;95.80
1812;DHT22;904;47.814;11.134;2022-10-19T19:17:28;16.60;95.80
1812;DHT22;904;47.814;11.134;2022-10-19T19:19:55;16.60;95.80
1812;DHT22;904;47.814;11.134;2022-10-19T19:22:22;16.60;95.70
1812;DHT22;904;47.814;11.134;2022-10-19T19:24:51;16.70;95.70
1812;DHT22;904;47.814;11.134;2022-10-19T19:27:19;16.70;95.60
1812;DHT22;904;47.814;11.134;2022-10-19T19:29:48;16.70;95.60
1812;DHT22;904;47.814;11.134;2022-10-19T19:32:16;16.70;95.60
1812;DHT22;904;47.814;11.134;2022-10-19T19:34:44;16.70;95.60
1812;DHT22;904;47.814;11.134;2022-10-19T19:37:11;16.60;95.70
1812;DHT22;904;47.814;11.134;2022-10-19T19:39:38;16.60;95.80
1812;DHT22;904;47.814;11.134;2022-10-19T19:42:06;16.60;95.90
1812;DHT22;904;47.814;11.134;2022-10-19T19:44:33;16.70;95.90
1812;DHT22;904;47.814;11.134;2022-10-19T19:47:02;16.60;95.90
1812;DHT22;904;47.814;11.134;2022-10-19T19:49:29;16.60;95.90
1812;DHT22;904;47.814;11.134;2022-10-19T19:51:57;16.60;95.90
1812;DHT22;904;47.814;11.134;2022-10-19T19:54:24;16.60;95.90
1812;DHT22;904;47.814;11.134;2022-10-19T19:56:51;16.70;96.00
1812;DHT22;904;47.814;11.134;2022-10-19T19:59:19;16.60;95.90
1812;DHT22;904;47.814;11.134;2022-10-19T20:01:46;16.60;95.90
1812;DHT22;904;47.814;11.134;2022-10-19T20:04:13;16.60;95.90
1812;DHT22;904;47.814;11.134;2022-10-19T20:06:40;16.60;95.90
1812;DHT22;904;47.814;11.134;2022-10-19T20:09:10;16.70;95.90
1812;DHT22;904;47.814;11.134;2022-10-19T20:11:37;16.70;95.90
1812;DHT22;904;47.814;11.134;2022-10-19T20:14:04;16.70;96.00
1812;DHT22;904;47.814;11.134;2022-10-19T20:16:31;16.60;96.00
1812;DHT22;904;47.814;11.134;2022-10-19T20:19:02;16.60;96.10
1812;DHT22;904;47.814;11.134;2022-10-19T20:21:29;16.60;96.20
1812;DHT22;904;47.814;11.134;2022-10-19T20:23:58;16.60;96.40
1812;DHT22;904;47.814;11.134;2022-10-19T20:26:27;16.60;96.30
1812;DHT22;904;47.814;11.134;2022-10-19T20:28:55;16.60;96.30
1812;DHT22;904;47.814;11.134;2022-10-19T20:31:22;16.60;96.40
1812;DHT22;904;47.814;11.134;2022-10-19T20:33:50;16.60;96.50
1812;DHT22;904;47.814;11.134;2022-10-19T20:36:18;16.60;96.50
1812;DHT22;904;47.814;11.134;2022-10-19T20:38:47;16.50;96.60
1812;DHT22;904;47.814;11.134;2022-10-19T20:41:17;16.50;96.70
1812;DHT22;904;47.814;11.134;2022-10-19T20:43:46;16.50;96.70
1812;DHT22;904;47.814;11.134;2022-10-19T20:46:15;16.50;96.80
1812;DHT22;904;47.814;11.134;2022-10-19T20:48:44;16.50;96.80
1812;DHT22;904;47.814;11.134;2022-10-19T20:51:13;16.50;96.70
1812;DHT22;904;47.814;11.134;2022-10-19T20:53:40;16.50;96.90
1812;DHT22;904;47.814;11.134;2022-10-19T20:56:09;16.50;96.80
1812;DHT22;904;47.814;11.134;2022-10-19T20:58:36;16.50;96.80
1812;DHT22;904;47.814;11.134;2022-10-19T21:01:12;16.50;96.90
1812;DHT22;904;47.814;11.134;2022-10-19T21:03:39;16.50;96.90
1812;DHT22;904;47.814;11.134;2022-10-19T21:06:11;16.40;97.00
1812;DHT22;904;47.814;11.134;2022-10-19T21:08:38;16.40;97.10
1812;DHT22;904;47.814;11.134;2022-10-19T21:11:15;16.40;97.10
1812;DHT22;904;47.814;11.134;2022-10-19T21:13:43;16.40;97.10
1812;DHT22;904;47.814;11.134;2022-10-19T21:16:14;16.40;97.10
1812;DHT22;904;47.814;11.134;2022-10-19T21:18:43;16.40;97.10